Time;durP1;ratioP1;P1;durP2;ratioP2;P2;SDS_P1;SDS_P2;PMS_P1;PMS_P2;Temp;Humidity;BMP_temperature;BMP_pressure;BME280_temperature;BME280_humidity;BME280_pressure;Samples;Min_cycle;Max_cycle;Signal;HPM_P1;HPM_P2
2022/04/11 00:02:06;;;;;;;23.05;11.00;;;;;;;5.79;100.00;101831.53;5205749;28;20022;-74
2022/04/11 00:04:36;;;;;;;19.25;10.85;;;;;;;5.78;100.00;101835.19;5205282;28;20496;-73
2022/04/11 00:07:07;;;;;;;18.15;10.80;;;;;;;5.79;100.00;101836.88;5205504;28;20048;-73
2022/04/11 00:09:37;;;;;;;17.85;10.07;;;;;;;5.80;100.00;101827.91;5205422;28;20075;-73
2022/04/11 00:12:08;;;;;;;20.98;10.80;;;;;;;5.82;100.00;101829.50;5205017;28;20036;-73
2022/04/11 00:14:39;;;;;;;20.90;10.43;;;;;;;5.80;100.00;101828.75;5205060;28;20682;-73
2022/04/11 00:17:10;;;;;;;22.65;11.07;;;;;;;5.79;100.00;101832.41;5205232;28;20037;-73
2022/04/11 00:19:40;;;;;;;21.73;10.93;;;;;;;5.79;100.00;101834.22;5205108;28;20025;-73
2022/04/11 00:22:11;;;;;;;16.45;10.02;;;;;;;5.77;100.00;101822.81;5202307;28;20028;-73
2022/04/11 00:24:41;;;;;;;19.70;10.73;;;;;;;5.76;100.00;101824.63;5204698;28;20475;-73
2022/04/11 00:27:12;;;;;;;19.02;9.93;;;;;;;5.72;100.00;101809.81;5205102;28;20207;-73
2022/04/11 00:29:42;;;;;;;20.77;11.15;;;;;;;5.68;100.00;101814.53;5204835;28;20023;-73
2022/04/11 00:32:13;;;;;;;16.40;10.30;;;;;;;5.67;100.00;101809.31;5205508;28;20029;-73
2022/04/11 00:34:43;;;;;;;20.63;10.90;;;;;;;5.66;100.00;101815.59;5205074;28;20029;-72
2022/04/11 00:37:14;;;;;;;23.98;11.15;;;;;;;5.62;100.00;101812.31;5204735;28;20025;-73
2022/04/11 00:39:44;;;;;;;19.00;10.65;;;;;;;5.60;100.00;101805.41;5205344;28;20101;-73
2022/04/11 00:42:15;;;;;;;19.35;10.27;;;;;;;5.57;100.00;101800.28;5204894;28;20052;-73
2022/04/11 00:44:45;;;;;;;24.45;9.57;;;;;;;5.53;100.00;101798.81;5203546;28;20387;-73
2022/04/11 00:47:15;;;;;;;23.38;10.77;;;;;;;5.50;100.00;101804.34;5205068;28;20025;-72
2022/04/11 00:49:47;;;;;;;22.42;10.57;;;;;;;5.48;100.00;101801.81;5204411;28;20120;-73
2022/04/11 00:52:17;;;;;;;21.63;10.40;;;;;;;5.46;100.00;101799.25;5204746;28;20097;-73
2022/04/11 00:54:48;;;;;;;16.92;9.82;;;;;;;5.46;100.00;101793.06;5204314;28;20025;-73
2022/04/11 00:57:20;;;;;;;20.58;10.73;;;;;;;5.43;100.00;101793.31;5204532;28;20469;-73
2022/04/11 00:59:52;;;;;;;19.60;10.45;;;;;;;5.40;100.00;101793.50;5204007;28;20035;-74
2022/04/11 01:02:22;;;;;;;16.63;9.45;;;;;;;5.39;100.00;101794.47;5204955;28;20025;-74
2022/04/11 01:04:53;;;;;;;20.15;10.05;;;;;;;5.36;100.00;101782.22;5204834;28;20117;-75
2022/04/11 01:07:23;;;;;;;18.40;10.35;;;;;;;5.31;100.00;101779.06;5204902;28;20022;-74
2022/04/11 01:10:08;;;;;;;18.98;9.95;;;;;;;5.25;100.00;101784.81;5192848;28;20399;-75
2022/04/11 01:12:53;;;;;;;15.20;9.20;;;;;;;5.22;100.00;101774.41;5204805;28;20489;-75
2022/04/11 01:15:30;;;;;;;16.15;9.27;;;;;;;5.19;100.00;101774.63;5204847;28;20083;-75
2022/04/11 01:18:01;;;;;;;17.38;9.30;;;;;;;5.15;100.00;101773.97;5204513;28;20013;-74
2022/04/11 01:20:48;;;;;;;17.45;9.98;;;;;;;5.11;100.00;101774.28;5201190;28;20032;-71
2022/04/11 01:23:19;;;;;;;18.65;9.77;;;;;;;5.07;100.00;101773.69;5204567;28;20026;-71
2022/04/11 01:26:05;;;;;;;19.10;10.60;;;;;;;5.03;100.00;101766.88;5204106;28;20025;-71
2022/04/11 01:28:38;;;;;;;17.42;9.30;;;;;;;4.99;100.00;101762.72;5203861;28;20036;-70
2022/04/11 01:31:13;;;;;;;17.35;9.45;;;;;;;4.94;100.00;101756.88;5204045;28;20028;-70
2022/04/11 01:33:43;;;;;;;20.13;9.90;;;;;;;4.89;100.00;101772.31;5204688;28;20021;-70
2022/04/11 01:36:14;;;;;;;20.30;9.75;;;;;;;4.82;100.00;101769.22;5196804;28;20055;-70
2022/04/11 01:38:44;;;;;;;17.17;9.82;;;;;;;4.76;100.00;101774.94;5204072;28;20364;-70
2022/04/11 01:41:14;;;;;;;19.58;9.90;;;;;;;4.73;100.00;101769.84;5204174;28;20497;-71
2022/04/11 01:43:46;;;;;;;16.42;10.38;;;;;;;4.64;100.00;101768.69;5203634;28;20614;-70
2022/04/11 01:46:17;;;;;;;22.70;10.55;;;;;;;4.56;100.00;101783.44;5204250;28;20067;-70
2022/04/11 01:48:47;;;;;;;20.98;10.77;;;;;;;4.48;100.00;101780.47;5204196;28;20029;-73
2022/04/11 01:51:18;;;;;;;22.50;10.50;;;;;;;4.40;100.00;101771.19;5203888;28;20132;-73
2022/04/11 01:53:49;;;;;;;25.02;10.80;;;;;;;4.33;100.00;101783.19;5204603;28;20375;-73
2022/04/11 01:56:20;;;;;;;21.67;10.13;;;;;;;4.26;100.00;101768.63;5206005;28;20083;-73
2022/04/11 01:58:51;;;;;;;15.77;9.75;;;;;;;4.20;100.00;101777.00;5208081;28;20018;-73
2022/04/11 02:01:22;;;;;;;22.33;10.88;;;;;;;4.14;100.00;101780.06;5208030;28;20060;-73
2022/04/11 02:03:53;;;;;;;18.02;9.82;;;;;;;4.10;100.00;101778.56;5208253;28;20071;-72
2022/04/11 02:06:23;;;;;;;24.20;10.43;;;;;;;4.04;100.00;101773.66;5205576;28;20037;-72
2022/04/11 02:08:54;;;;;;;19.73;9.93;;;;;;;3.97;100.00;101769.72;5207972;28;20101;-72
2022/04/11 02:11:25;;;;;;;23.45;12.00;;;;;;;3.94;100.00;101775.22;5207838;28;20053;-73
2022/04/11 02:13:56;;;;;;;19.30;10.98;;;;;;;3.89;100.00;101780.84;5208204;28;20037;-73
2022/04/11 02:16:27;;;;;;;20.10;11.43;;;;;;;3.83;100.00;101778.59;5207875;28;20028;-73
2022/04/11 02:18:57;;;;;;;18.33;9.68;;;;;;;3.75;100.00;101776.41;5207617;28;20029;-73
2022/04/11 02:21:28;;;;;;;17.38;10.02;;;;;;;3.71;100.00;101772.25;5199079;28;20021;-73
2022/04/11 02:23:59;;;;;;;24.40;11.15;;;;;;;3.69;100.00;101773.31;5203245;28;20047;-72
2022/04/11 02:26:29;;;;;;;20.05;10.68;;;;;;;3.63;100.00;101779.88;5207604;28;20579;-73
2022/04/11 02:29:00;;;;;;;20.33;9.48;;;;;;;3.57;100.00;101770.50;5207480;28;20029;-73
2022/04/11 02:31:30;;;;;;;20.75;10.20;;;;;;;3.55;100.00;101768.88;5208048;28;20025;-73
2022/04/11 02:34:00;;;;;;;21.60;10.77;;;;;;;3.53;100.00;101770.81;5203913;28;20029;-73
2022/04/11 02:36:31;;;;;;;22.42;10.98;;;;;;;3.47;100.00;101782.66;5207444;28;20022;-73
2022/04/11 02:39:01;;;;;;;22.50;10.55;;;;;;;3.42;100.00;101776.81;5207400;28;20104;-73
2022/04/11 02:41:32;;;;;;;20.00;10.40;;;;;;;3.38;100.00;101773.47;5207330;28;20032;-72
2022/04/11 02:44:03;;;;;;;19.70;10.65;;;;;;;3.33;100.00;101774.72;5207506;28;20087;-72
2022/04/11 02:46:33;;;;;;;18.35;11.15;;;;;;;3.26;100.00;101776.91;5207309;28;20564;-72
2022/04/11 02:49:03;;;;;;;20.23;10.65;;;;;;;3.19;100.00;101777.38;5207108;28;20097;-72
2022/04/11 02:51:34;;;;;;;19.92;10.63;;;;;;;3.15;100.00;101774.06;5207076;28;20471;-72
2022/04/11 02:54:07;;;;;;;16.67;10.75;;;;;;;3.10;100.00;101778.81;5207059;28;20029;-72
2022/04/11 02:56:37;;;;;;;18.30;10.90;;;;;;;3.04;100.00;101774.75;5206735;28;20040;-71
2022/04/11 02:59:08;;;;;;;18.27;10.48;;;;;;;2.99;100.00;101779.47;5207154;28;20022;-71
2022/04/11 03:01:38;;;;;;;19.52;10.68;;;;;;;2.95;100.00;101777.94;5206992;28;20116;-71
2022/04/11 03:04:09;;;;;;;23.58;10.73;;;;;;;2.91;100.00;101780.88;5206731;28;20026;-71
2022/04/11 03:06:39;;;;;;;24.15;11.15;;;;;;;2.87;100.00;101772.28;5205968;28;20434;-71
2022/04/11 03:09:10;;;;;;;20.55;11.77;;;;;;;2.83;100.00;101771.63;5205723;28;20116;-71
2022/04/11 03:11:40;;;;;;;22.17;10.98;;;;;;;2.79;100.00;101767.44;5206920;28;20033;-70
2022/04/11 03:14:11;;;;;;;19.30;11.48;;;;;;;2.79;100.00;101769.25;5206399;28;20546;-70
2022/04/11 03:16:42;;;;;;;20.58;10.80;;;;;;;2.79;100.00;101769.25;5206971;28;20398;-70
2022/04/11 03:19:12;;;;;;;25.38;12.48;;;;;;;2.80;100.00;101769.13;5206671;28;20037;-70
2022/04/11 03:21:43;;;;;;;20.30;10.15;;;;;;;2.77;100.00;101765.84;5203409;28;20037;-70
2022/04/11 03:24:13;;;;;;;21.20;10.43;;;;;;;2.71;100.00;101759.13;5206272;28;20574;-70
2022/04/11 03:26:44;;;;;;;20.63;10.45;;;;;;;2.66;100.00;101763.84;5206339;28;20257;-70
2022/04/11 03:29:14;;;;;;;24.98;12.27;;;;;;;2.65;100.00;101755.97;5205941;28;20558;-70
2022/04/11 03:31:46;;;;;;;18.90;10.88;;;;;;;2.64;100.00;101762.22;5206264;28;20060;-71
2022/04/11 03:34:16;;;;;;;21.20;10.98;;;;;;;2.60;100.00;101753.59;5201224;28;20439;-70
2022/04/11 03:36:47;;;;;;;18.92;10.93;;;;;;;2.57;100.00;101754.66;5200016;28;20116;-71
2022/04/11 03:39:18;;;;;;;26.00;11.38;;;;;;;2.54;100.00;101760.13;5206482;28;20025;-70
2022/04/11 03:41:48;;;;;;;18.10;10.15;;;;;;;2.56;100.00;101757.38;5206049;28;20057;-70
2022/04/11 03:44:18;;;;;;;20.52;10.40;;;;;;;2.55;100.00;101761.81;5205866;28;20025;-71
2022/04/11 03:46:49;;;;;;;25.67;11.23;;;;;;;2.53;100.00;101760.22;5205689;28;20049;-70
2022/04/11 03:49:19;;;;;;;23.50;11.45;;;;;;;2.52;100.00;101763.81;5205872;28;20280;-70
2022/04/11 03:51:51;;;;;;;22.00;11.50;;;;;;;2.49;100.00;101753.41;5205837;28;20029;-70
2022/04/11 03:54:21;;;;;;;20.33;11.60;;;;;;;2.45;100.00;101760.66;5205675;28;20065;-71
2022/04/11 03:56:52;;;;;;;23.23;11.95;;;;;;;2.45;100.00;101762.47;5205522;28;20486;-70
2022/04/11 03:59:22;;;;;;;26.77;12.20;;;;;;;2.40;100.00;101756.59;5205457;28;20514;-70
2022/04/11 04:01:52;;;;;;;21.80;10.75;;;;;;;2.35;100.00;101751.56;5205874;28;20021;-70
2022/04/11 04:04:23;;;;;;;19.73;11.10;;;;;;;2.32;100.00;101757.91;5205398;28;20393;-70
2022/04/11 04:06:53;;;;;;;28.02;10.80;;;;;;;2.28;100.00;101744.94;5205726;28;20541;-70
2022/04/11 04:09:24;;;;;;;21.38;10.43;;;;;;;2.27;100.00;101748.53;5205043;28;20437;-70
2022/04/11 04:11:54;;;;;;;20.02;10.13;;;;;;;2.25;100.00;101750.41;5205575;28;20032;-70
2022/04/11 04:14:25;;;;;;;26.00;10.80;;;;;;;2.23;100.00;101747.00;5205514;28;20188;-70
2022/04/11 04:16:55;;;;;;;18.90;10.10;;;;;;;2.21;100.00;101746.22;5205661;28;20033;-70
2022/04/11 04:19:26;;;;;;;22.23;10.25;;;;;;;2.19;100.00;101745.47;5205090;28;20535;-70
2022/04/11 04:21:56;;;;;;;22.15;10.73;;;;;;;2.18;100.00;101751.72;5202711;28;20052;-70
2022/04/11 04:24:27;;;;;;;24.95;12.00;;;;;;;2.16;100.00;101751.81;5205069;28;20493;-70
2022/04/11 04:26:57;;;;;;;23.77;11.07;;;;;;;2.12;100.00;101747.66;5205156;28;20518;-70
2022/04/11 04:29:28;;;;;;;19.65;10.30;;;;;;;2.12;100.00;101752.09;5203760;28;20078;-70
2022/04/11 04:31:58;;;;;;;24.15;11.25;;;;;;;2.07;100.00;101741.78;5205024;28;20028;-70
2022/04/11 04:34:30;;;;;;;19.02;11.57;;;;;;;2.04;100.00;101740.13;5198139;28;20105;-70
2022/04/11 04:37:01;;;;;;;24.75;11.60;;;;;;;2.03;100.00;101735.78;5201037;28;20044;-71
2022/04/11 04:39:31;;;;;;;20.45;11.57;;;;;;;2.00;100.00;101738.59;5205294;28;20502;-71
2022/04/11 04:42:02;;;;;;;26.98;10.48;;;;;;;1.98;100.00;101735.22;5205009;28;20386;-71
2022/04/11 04:44:32;;;;;;;22.60;11.18;;;;;;;1.97;100.00;101725.56;5204855;28;20029;-71
2022/04/11 04:47:03;;;;;;;19.10;10.20;;;;;;;1.95;100.00;101732.72;5204529;28;20099;-70
2022/04/11 04:49:33;;;;;;;25.95;11.10;;;;;;;1.96;100.00;101730.97;5204659;28;20025;-71
2022/04/11 04:52:06;;;;;;;20.20;11.02;;;;;;;1.96;100.00;101736.25;5205014;28;20359;-71
2022/04/11 04:54:37;;;;;;;22.90;11.60;;;;;;;1.96;100.00;101729.16;5204467;28;20037;-71
2022/04/11 04:57:07;;;;;;;20.00;10.32;;;;;;;1.94;100.00;101728.38;5205120;28;20032;-71
2022/04/11 04:59:38;;;;;;;23.02;11.23;;;;;;;1.95;100.00;101731.88;5204402;28;20025;-71
2022/04/11 05:02:08;;;;;;;21.58;10.73;;;;;;;1.95;100.00;101724.78;5204687;28;20056;-71
2022/04/11 05:04:39;;;;;;;29.15;12.30;;;;;;;1.98;100.00;101737.00;5204168;28;20486;-71
2022/04/11 05:07:09;;;;;;;21.00;10.30;;;;;;;1.99;100.00;101726.31;5204774;28;20052;-71
2022/04/11 05:09:40;;;;;;;24.45;10.48;;;;;;;2.02;100.00;101722.66;5204221;28;20087;-71
2022/04/11 05:12:10;;;;;;;17.13;10.57;;;;;;;2.03;100.00;101713.78;5204249;28;20479;-71
2022/04/11 05:14:40;;;;;;;18.75;9.15;;;;;;;2.09;100.00;101718.69;5204154;28;20033;-71
2022/04/11 05:17:11;;;;;;;19.65;9.85;;;;;;;2.14;100.00;101719.28;5204409;28;20060;-71
2022/04/11 05:19:41;;;;;;;21.42;10.45;;;;;;;2.21;100.00;101718.00;5203167;28;20433;-71
2022/04/11 05:22:12;;;;;;;20.25;10.48;;;;;;;2.27;100.00;101716.78;5203872;28;20395;-71
2022/04/11 05:27:54;;;;;;;21.60;10.20;;;;;;;2.46;100.00;101724.44;5191508;28;20033;-71
2022/04/11 05:30:24;;;;;;;20.08;9.40;;;;;;;2.56;100.00;101728.22;5203144;28;20060;-71
2022/04/11 05:32:55;;;;;;;15.82;9.95;;;;;;;2.63;100.00;101729.59;5203791;28;20021;-71
2022/04/11 05:35:26;;;;;;;23.40;9.70;;;;;;;2.71;100.00;101724.69;5192419;28;20471;-71
2022/04/11 05:37:56;;;;;;;22.15;9.25;;;;;;;2.79;100.00;101725.03;5204143;28;20029;-72
2022/04/11 05:40:27;;;;;;;18.17;9.90;;;;;;;2.88;100.00;101723.63;5203894;28;20056;-71
2022/04/11 05:42:57;;;;;;;18.55;10.45;;;;;;;2.98;100.00;101721.25;5204150;28;20029;-72
2022/04/11 05:45:28;;;;;;;19.90;9.73;;;;;;;3.09;100.00;101719.63;5203239;28;20039;-71
2022/04/11 05:47:58;;;;;;;19.00;8.85;;;;;;;3.22;100.00;101716.22;5203850;28;20453;-71
2022/04/11 05:50:29;;;;;;;17.58;8.73;;;;;;;3.37;100.00;101718.72;5203822;28;20029;-71
2022/04/11 05:53:00;;;;;;;15.82;9.40;;;;;;;3.74;100.00;101718.97;5203945;28;20027;-72
2022/04/11 05:55:31;;;;;;;14.57;8.63;;;;;;;4.28;100.00;101707.44;5203836;28;20029;-72
2022/04/11 05:58:01;;;;;;;18.10;8.93;;;;;;;4.86;100.00;101708.69;5203606;28;20116;-72
2022/04/11 06:00:32;;;;;;;14.02;8.10;;;;;;;5.37;100.00;101709.44;5203874;28;20091;-72
2022/04/11 06:03:02;;;;;;;13.98;7.20;;;;;;;5.60;100.00;101704.25;5203858;28;20025;-72
2022/04/11 06:05:32;;;;;;;18.55;8.05;;;;;;;5.81;100.00;101718.63;5203643;28;20075;-72
2022/04/11 06:08:03;;;;;;;14.52;7.25;;;;;;;6.00;100.00;101723.47;5203637;28;20064;-72
2022/04/11 06:10:35;;;;;;;22.77;7.78;;;;;;;6.01;100.00;101719.81;5203122;28;20568;-72
2022/04/11 06:13:05;;;;;;;18.27;7.97;;;;;;;6.02;100.00;101721.50;5203587;28;20025;-72
2022/04/11 06:15:36;;;;;;;15.30;6.85;;;;;;;6.26;100.00;101724.13;5203420;28;20029;-72
2022/04/11 06:18:06;;;;;;;13.10;7.15;;;;;;;6.57;100.00;101722.63;5203934;28;20049;-72
2022/04/11 06:20:37;;;;;;;15.20;7.03;;;;;;;6.85;100.00;101723.16;5201841;28;20025;-72
2022/04/11 06:23:07;;;;;;;12.32;6.57;;;;;;;7.05;100.00;101727.75;5201380;28;20478;-72
2022/04/11 06:25:38;;;;;;;15.25;7.13;;;;;;;7.31;100.00;101719.47;5203214;28;20482;-72
2022/04/11 06:28:08;;;;;;;20.30;6.57;;;;;;;7.59;100.00;101728.78;5203756;28;20036;-72
2022/04/11 06:30:39;;;;;;;12.63;6.53;;;;;;;7.87;100.00;101733.53;5203571;28;20108;-72
2022/04/11 06:33:09;;;;;;;13.15;6.05;;;;;;;8.26;100.00;101726.69;5202072;28;20033;-72
2022/04/11 06:35:40;;;;;;;12.95;6.45;;;;;;;8.71;100.00;101723.75;5194229;28;20030;-72
2022/04/11 06:38:10;;;;;;;12.13;7.03;;;;;;;8.92;100.00;101714.84;5203801;28;20389;-72
2022/04/11 06:40:41;;;;;;;13.60;6.10;;;;;;;9.04;100.00;101716.47;5203841;28;20025;-73
2022/04/11 06:43:11;;;;;;;11.25;6.53;;;;;;;9.39;100.00;101713.31;5207049;28;20061;-73
2022/04/11 06:45:42;;;;;;;12.27;6.28;;;;;;;9.72;100.00;101711.25;5205493;28;20423;-72
2022/04/11 06:48:12;;;;;;;16.95;6.63;;;;;;;10.04;100.00;101716.31;5206942;28;20088;-73
2022/04/11 06:50:43;;;;;;;8.02;5.18;;;;;;;10.19;100.00;101701.53;5206861;28;20104;-73
2022/04/11 06:53:14;;;;;;;12.63;5.70;;;;;;;10.38;100.00;101698.81;5207210;28;20021;-72
2022/04/11 06:55:47;;;;;;;12.98;5.25;;;;;;;10.23;100.00;101694.03;5206783;28;20526;-73
2022/04/11 06:58:18;;;;;;;7.68;4.90;;;;;;;10.57;100.00;101699.78;5206595;28;20095;-73
2022/04/11 07:00:48;;;;;;;13.23;5.05;;;;;;;11.07;100.00;101697.59;5206945;28;20104;-73
2022/04/11 07:03:19;;;;;;;9.45;4.57;;;;;;;10.97;100.00;101698.66;5206982;28;20113;-72
2022/04/11 07:05:50;;;;;;;15.27;5.18;;;;;;;10.86;100.00;101697.00;5206741;28;20025;-73
2022/04/11 07:08:20;;;;;;;10.98;5.00;;;;;;;10.44;100.00;101699.22;5206758;28;20117;-73
2022/04/11 07:10:51;;;;;;;11.63;4.88;;;;;;;10.93;100.00;101702.63;5206343;28;20112;-73
2022/04/11 07:13:21;;;;;;;8.57;4.53;;;;;;;11.43;100.00;101694.16;5206837;28;20021;-73
2022/04/11 07:15:52;;;;;;;11.63;4.85;;;;;;;11.45;100.00;101695.72;5206645;28;20030;-73
2022/04/11 07:18:27;;;;;;;12.23;4.90;;;;;;;11.54;100.00;101691.25;5206664;28;20013;-73
2022/04/11 07:20:57;;;;;;;7.50;4.15;;;;;;;11.36;100.00;101689.41;5203930;28;20053;-73
2022/04/11 07:23:28;;;;;;;8.65;4.13;;;;;;;11.39;100.00;101689.06;5206326;28;20048;-73
2022/04/11 07:25:58;;;;;;;8.98;4.10;;;;;;;11.71;100.00;101695.81;5206202;28;20029;-73
2022/04/11 07:28:28;;;;;;;8.63;4.03;;;;;;;12.02;100.00;101690.91;5206369;28;20028;-73
2022/04/11 07:30:59;;;;;;;8.73;3.10;;;;;;;12.57;96.73;101685.25;5205073;28;20437;-73
2022/04/11 07:33:29;;;;;;;5.57;3.15;;;;;;;12.11;100.00;101683.75;5203039;28;20022;-73
2022/04/11 07:36:00;;;;;;;7.43;3.03;;;;;;;12.52;99.30;101679.50;5198684;28;20067;-73
2022/04/11 07:38:30;;;;;;;7.88;3.22;;;;;;;12.53;100.00;101666.88;5206074;28;20029;-73
2022/04/11 07:41:01;;;;;;;8.00;3.35;;;;;;;12.31;100.00;101669.13;5206142;28;20052;-73
2022/04/11 07:43:31;;;;;;;9.35;3.50;;;;;;;12.09;97.67;101658.84;5206133;28;20025;-73
2022/04/11 07:46:04;;;;;;;7.57;3.20;;;;;;;12.24;97.06;101657.28;5206275;28;20028;-72
2022/04/11 07:48:35;;;;;;;7.07;2.78;;;;;;;12.25;96.05;101656.31;5205609;28;20026;-73
2022/04/11 07:51:05;;;;;;;9.18;2.88;;;;;;;11.97;98.60;101649.34;5205983;28;20394;-73
2022/04/11 07:53:36;;;;;;;9.05;2.90;;;;;;;11.77;96.00;101649.50;5205485;28;20022;-73
2022/04/11 07:56:06;;;;;;;9.10;3.00;;;;;;;12.10;100.00;101655.19;5205948;28;20025;-73
2022/04/11 07:58:37;;;;;;;6.57;2.45;;;;;;;12.65;90.94;101647.63;5205606;28;20013;-73
2022/04/11 08:01:07;;;;;;;7.50;2.78;;;;;;;12.68;93.91;101652.69;5205997;28;20160;-73
2022/04/11 08:03:38;;;;;;;5.75;2.80;;;;;;;12.65;88.28;101657.53;5205941;28;20025;-73
2022/04/11 08:06:08;;;;;;;6.68;2.92;;;;;;;12.29;87.27;101654.13;5205603;28;20028;-73
2022/04/11 08:11:25;;;;;;;6.53;2.67;;;;;;;12.44;94.77;101652.53;5205039;28;20104;-73
2022/04/11 08:13:56;;;;;;;10.73;3.20;;;;;;;11.96;92.52;101651.19;5205779;28;20104;-73
2022/04/11 08:16:26;;;;;;;8.27;3.75;;;;;;;12.33;89.65;101647.41;5205079;28;20033;-73
2022/04/11 08:18:57;;;;;;;7.20;2.72;;;;;;;12.58;94.10;101649.25;5205341;28;20018;-73
2022/04/11 08:21:28;;;;;;;5.55;2.63;;;;;;;12.65;95.19;101649.44;5202535;28;20074;-73
2022/04/11 08:23:58;;;;;;;6.25;2.90;;;;;;;13.18;85.71;101649.19;5205360;28;20029;-73
2022/04/11 08:26:29;;;;;;;5.53;2.53;;;;;;;12.66;89.05;101638.53;5205066;28;20053;-74
2022/04/11 08:28:59;;;;;;;9.70;2.88;;;;;;;12.95;86.89;101648.06;5204939;28;20437;-73
2022/04/11 08:31:30;;;;;;;5.95;2.15;;;;;;;13.01;85.12;101647.44;5203968;28;20032;-74
2022/04/11 08:34:00;;;;;;;5.28;2.85;;;;;;;12.94;84.85;101649.94;5201410;28;20029;-73
2022/04/11 08:36:31;;;;;;;8.13;2.80;;;;;;;12.55;85.39;101646.03;5196254;28;20029;-73
2022/04/11 08:39:02;;;;;;;5.75;2.80;;;;;;;13.07;90.35;101637.88;5204995;28;20072;-73
2022/04/11 08:41:34;;;;;;;9.52;3.30;;;;;;;12.93;83.85;101642.88;5204991;28;20144;-73
2022/04/11 08:44:06;;;;;;;10.93;3.17;;;;;;;12.93;85.48;101632.09;5205190;28;20104;-73
2022/04/11 08:46:36;;;;;;;6.78;2.85;;;;;;;13.48;85.36;101631.59;5204306;28;20065;-74
2022/04/11 08:49:07;;;;;;;4.20;2.80;;;;;;;13.61;82.04;101632.97;5204961;28;20041;-73
2022/04/11 08:51:37;;;;;;;6.32;2.72;;;;;;;14.12;77.91;101625.56;5204691;28;20029;-73
2022/04/11 08:54:08;;;;;;;9.85;3.00;;;;;;;14.00;77.78;101619.63;5204821;28;20071;-73
2022/04/11 08:56:39;;;;;;;8.32;2.60;;;;;;;14.05;81.39;101614.56;5204884;28;20408;-73
2022/04/11 08:59:10;;;;;;;10.85;3.53;;;;;;;14.12;82.74;101603.97;5204349;28;20479;-73
2022/04/11 09:01:41;;;;;;;5.00;2.70;;;;;;;14.45;79.10;101607.41;5204811;28;20086;-73
2022/04/11 09:04:11;;;;;;;6.18;2.92;;;;;;;14.07;76.39;101607.16;5204462;28;20048;-73
2022/04/11 09:06:42;;;;;;;11.23;3.65;;;;;;;13.75;77.79;101608.00;5204093;28;20116;-73
2022/04/11 09:09:13;;;;;;;6.45;3.05;;;;;;;13.93;78.90;101602.47;5204397;28;20021;-74
2022/04/11 09:11:44;;;;;;;7.18;2.90;;;;;;;14.15;74.47;101607.13;5204293;28;20029;-73
2022/04/11 09:14:14;;;;;;;7.53;2.80;;;;;;;13.81;78.02;101596.56;5204280;28;20021;-74
2022/04/11 09:17:03;;;;;;;5.03;2.85;;;;;;;14.44;76.46;101598.47;5204509;28;20025;-73
2022/04/11 09:19:34;;;;;;;9.50;3.00;;;;;;;14.77;77.31;101591.16;5204421;28;20040;-74
2022/04/11 09:22:05;;;;;;;9.30;3.20;;;;;;;15.14;73.30;101589.59;5201357;28;20029;-74
2022/04/11 09:24:37;;;;;;;6.65;2.75;;;;;;;14.85;74.14;101582.13;5191199;28;20028;-74
2022/04/11 09:27:08;;;;;;;5.97;3.38;;;;;;;15.48;77.06;101581.09;5204457;28;20372;-73
2022/04/11 09:29:42;;;;;;;6.70;2.80;;;;;;;15.50;72.22;101576.31;5204160;28;20084;-74
2022/04/11 09:32:13;;;;;;;6.30;3.00;;;;;;;15.42;69.43;101578.28;5204393;28;20025;-74
2022/04/11 09:34:53;;;;;;;6.55;2.63;;;;;;;14.94;74.42;101574.84;5194611;28;20287;-74
2022/04/11 09:37:23;;;;;;;5.95;2.40;;;;;;;14.73;74.96;101572.75;5203514;28;20390;-73
2022/04/11 09:39:56;;;;;;;6.40;2.60;;;;;;;15.24;69.45;101570.44;5204316;28;20021;-74
2022/04/11 09:42:30;;;;;;;5.15;2.45;;;;;;;15.63;75.09;101554.13;5191495;28;20382;-74
2022/04/11 09:45:01;;;;;;;5.63;2.83;;;;;;;15.96;68.98;101565.47;5203661;28;20095;-74
2022/04/11 09:47:31;;;;;;;7.30;2.90;;;;;;;16.04;74.85;101557.28;5204277;28;20029;-74
2022/04/11 09:50:03;;;;;;;5.40;2.67;;;;;;;15.98;62.93;101560.72;5203902;28;20036;-74
2022/04/11 09:52:34;;;;;;;4.32;2.22;;;;;;;15.81;62.02;101551.06;5203950;28;20033;-74
2022/04/11 09:55:05;;;;;;;5.57;2.08;;;;;;;15.60;63.95;101548.19;5202542;28;20329;-74
2022/04/11 09:57:38;;;;;;;6.43;2.63;;;;;;;15.60;68.07;101549.03;5203807;28;20583;-74
2022/04/11 10:00:09;;;;;;;6.30;2.72;;;;;;;15.46;62.78;101548.00;5203837;28;20049;-74
2022/04/11 10:02:41;;;;;;;8.45;2.53;;;;;;;14.95;64.35;101547.63;5203961;28;20065;-74
2022/04/11 10:05:12;;;;;;;4.57;2.10;;;;;;;15.39;63.83;101527.25;5203790;28;20422;-74
2022/04/11 10:07:45;;;;;;;6.88;2.63;;;;;;;15.45;66.48;101531.94;5203671;28;20479;-74
2022/04/11 10:10:17;;;;;;;4.05;2.08;;;;;;;15.54;62.11;101533.53;5203656;28;20530;-74
2022/04/11 10:12:48;;;;;;;4.18;2.08;;;;;;;15.65;63.21;101530.44;5203670;28;20029;-74
2022/04/11 10:15:21;;;;;;;4.45;2.05;;;;;;;15.42;59.79;101522.31;5203569;28;20108;-74
2022/04/11 10:17:53;;;;;;;5.38;2.72;;;;;;;15.35;61.34;101523.22;5206777;28;20096;-74
2022/04/11 10:20:26;;;;;;;5.28;2.22;;;;;;;15.43;60.47;101515.06;5207284;28;20087;-74
2022/04/11 10:23:12;;;;;;;6.90;2.25;;;;;;;15.19;56.92;101510.69;5205005;28;20029;-74
2022/04/11 10:25:46;;;;;;;4.68;2.40;;;;;;;15.40;59.49;101510.00;5207335;28;20037;-74
2022/04/11 10:28:20;;;;;;;4.03;2.40;;;;;;;15.57;58.05;101511.56;5207474;28;20104;-74
2022/04/11 10:31:05;;;;;;;4.82;2.20;;;;;;;15.60;63.61;101511.16;5207405;28;20108;-74
2022/04/11 10:33:50;;;;;;;4.75;2.28;;;;;;;15.90;62.49;101490.44;5203438;28;20061;-74
2022/04/11 10:36:32;;;;;;;;;;;;;;;15.67;59.84;101487.81;5199981;28;20116;-74
2022/04/11 10:39:15;;;;;;;3.78;2.05;;;;;;;15.92;58.72;101483.00;5207050;28;19912;-74
2022/04/11 10:41:56;;;;;;;4.55;2.17;;;;;;;15.94;59.43;101478.22;5207237;28;20021;-74
2022/04/11 10:44:46;;;;;;;6.38;2.47;;;;;;;16.12;59.38;101469.75;5207303;28;20482;-74
2022/04/11 10:47:16;;;;;;;7.03;2.13;;;;;;;16.34;59.74;101467.94;5207034;28;20429;-74
2022/04/11 10:49:48;;;;;;;6.07;2.38;;;;;;;15.98;62.13;101473.28;5206841;28;20041;-75
2022/04/11 10:52:32;;;;;;;5.80;2.50;;;;;;;16.00;54.51;101468.53;5207341;28;20033;-74
2022/04/11 10:55:03;;;;;;;7.72;2.22;;;;;;;15.99;52.68;101464.97;5206956;28;20414;-74
2022/04/11 10:57:51;;;;;;;3.70;2.20;;;;;;;16.11;54.06;101459.09;5206981;28;20026;-74
2022/04/11 11:00:39;;;;;;;5.05;2.35;;;;;;;15.65;57.07;101460.09;5194316;28;20028;-74
2022/04/11 11:03:13;;;;;;;4.18;2.33;;;;;;;15.54;58.70;101453.25;5207317;28;20033;-75
2022/04/11 11:05:47;;;;;;;6.43;2.50;;;;;;;15.62;60.10;101452.34;5203681;28;20025;-74
2022/04/11 11:08:20;;;;;;;5.05;2.45;;;;;;;15.73;60.25;101445.66;5206398;28;20022;-75
2022/04/11 11:10:50;;;;;;;6.88;2.47;;;;;;;15.94;59.39;101444.94;5207194;28;20030;-73
2022/04/11 11:13:39;;;;;;;6.03;2.42;;;;;;;16.08;57.68;101440.53;5206811;28;20505;-73
2022/04/11 11:16:10;;;;;;;7.43;2.90;;;;;;;15.75;59.82;101444.44;5205271;28;20029;-73
2022/04/11 11:19:00;;;;;;;5.82;2.60;;;;;;;15.70;58.32;101436.03;5206359;28;20030;-73
2022/04/11 11:21:30;;;;;;;7.68;2.85;;;;;;;15.68;60.16;101427.28;5192192;28;20025;-73
2022/04/11 11:24:02;;;;;;;6.97;2.70;;;;;;;15.88;62.18;101432.16;5206625;28;20033;-74
2022/04/11 11:26:45;;;;;;;4.93;2.42;;;;;;;15.76;58.55;101434.47;5206237;28;20040;-74
2022/04/11 11:29:19;;;;;;;4.32;3.00;;;;;;;15.96;58.16;101430.16;5204947;28;20021;-73
2022/04/11 11:31:52;;;;;;;10.73;3.63;;;;;;;15.86;57.63;101431.47;5206281;28;20030;-73
2022/04/11 11:34:25;;;;;;;8.73;3.00;;;;;;;15.86;59.53;101428.78;5200915;28;20486;-73
2022/04/11 11:36:58;;;;;;;8.20;2.97;;;;;;;16.06;55.49;101421.75;5201393;28;20083;-73
2022/04/11 11:39:30;;;;;;;10.25;3.25;;;;;;;16.05;55.89;101407.38;5206031;28;20049;-73
2022/04/11 11:42:03;;;;;;;6.05;2.78;;;;;;;16.14;56.51;101410.00;5205042;28;20087;-73
2022/04/11 11:44:42;;;;;;;5.07;2.50;;;;;;;16.18;56.96;101416.72;5206122;28;20465;-73